createdAt,value
2022-09-21T00:01:15.738Z,4.97
2022-09-21T00:03:45.711Z,3.47
2022-09-21T00:06:18.269Z,5.43
2022-09-21T00:08:46.555Z,5.10
2022-09-21T00:11:15.598Z,6.33
2022-09-21T00:13:46.752Z,6.35
2022-09-21T00:16:16.451Z,6.28
2022-09-21T00:18:45.619Z,5.45
2022-09-21T00:21:15.963Z,4.60
2022-09-21T00:23:44.033Z,5.80
2022-09-21T00:26:14.649Z,6.30
2022-09-21T00:28:44.443Z,5.80
2022-09-21T00:31:14.369Z,6.80
2022-09-21T00:33:43.513Z,5.20
2022-09-21T00:36:14.816Z,6.70
2022-09-21T00:38:42.705Z,6.32
2022-09-21T00:41:12.236Z,6.20
2022-09-21T00:43:44.230Z,6.43
2022-09-21T00:46:16.606Z,6.32
2022-09-21T00:48:46.828Z,5.50
2022-09-21T00:51:16.462Z,4.95
2022-09-21T00:53:49.040Z,5.63
2022-09-21T00:56:20.287Z,4.70
2022-09-21T00:58:52.123Z,6.07
2022-09-21T01:01:20.791Z,5.03
2022-09-21T01:03:50.048Z,4.23
2022-09-21T01:06:21.454Z,5.90
2022-09-21T01:08:53.477Z,5.43
2022-09-21T01:11:30.595Z,5.60
2022-09-21T01:14:22.929Z,5.35
2022-09-21T01:17:02.384Z,5.60
2022-09-21T01:20:02.631Z,5.32
2022-09-21T01:22:47.178Z,4.85
2022-09-21T01:25:28.909Z,5.53
2022-09-21T01:28:10.139Z,4.50
2022-09-21T01:30:44.603Z,4.30
2022-09-21T01:33:18.254Z,6.18
2022-09-21T01:35:51.277Z,5.97
2022-09-21T01:38:26.755Z,5.13
2022-09-21T01:41:00.226Z,6.10
2022-09-21T01:43:32.371Z,5.45
2022-09-21T01:46:04.001Z,5.03
2022-09-21T01:48:35.738Z,5.72
2022-09-21T01:51:10.248Z,6.70
2022-09-21T01:53:42.056Z,5.07
2022-09-21T01:56:14.814Z,4.27
2022-09-21T01:58:46.712Z,3.80
2022-09-21T02:01:20.597Z,5.07
2022-09-21T02:03:54.043Z,6.23
2022-09-21T02:06:22.554Z,6.20
2022-09-21T02:08:50.301Z,6.90
2022-09-21T02:11:17.928Z,4.75
2022-09-21T02:13:48.006Z,4.83
2022-09-21T02:16:35.453Z,4.07
2022-09-21T02:19:13.430Z,4.53
2022-09-21T02:21:54.838Z,6.57
2022-09-21T02:24:33.658Z,6.55
2022-09-21T02:27:07.036Z,3.83
2022-09-21T02:29:46.322Z,4.57
2022-09-21T02:32:23.686Z,5.55
2022-09-21T02:34:55.225Z,4.40
2022-09-21T02:37:31.162Z,4.88
2022-09-21T02:40:04.348Z,4.50
2022-09-21T02:42:36.135Z,4.22
2022-09-21T02:45:09.199Z,7.43
2022-09-21T02:47:47.434Z,6.03
2022-09-21T02:50:21.212Z,3.90
2022-09-21T02:52:48.995Z,3.50
2022-09-21T02:55:18.806Z,3.90
2022-09-21T02:57:49.184Z,6.35
2022-09-21T03:00:18.028Z,7.65
2022-09-21T03:02:47.102Z,7.35
2022-09-21T03:05:16.022Z,7.03
2022-09-21T03:07:43.717Z,7.43
2022-09-21T03:10:11.778Z,6.72
2022-09-21T03:12:39.601Z,8.45
2022-09-21T03:15:07.818Z,8.63
2022-09-21T03:17:35.640Z,7.17
2022-09-21T03:20:05.210Z,7.60
2022-09-21T03:22:32.848Z,7.35
2022-09-21T03:25:00.528Z,7.40
2022-09-21T03:27:28.150Z,7.22
2022-09-21T03:29:59.981Z,6.75
2022-09-21T03:32:29.583Z,7.90
2022-09-21T03:34:57.259Z,5.38
2022-09-21T03:37:26.512Z,5.43
2022-09-21T03:39:54.172Z,7.85
2022-09-21T03:42:21.921Z,6.90
2022-09-21T03:44:49.585Z,4.28
2022-09-21T03:47:17.240Z,6.43
2022-09-21T03:49:45.121Z,4.60
2022-09-21T03:52:12.810Z,6.97
2022-09-21T03:54:41.846Z,5.23
2022-09-21T03:57:09.832Z,5.18
2022-09-21T03:59:37.521Z,5.13
2022-09-21T04:02:05.484Z,4.95
2022-09-21T04:04:33.254Z,5.28
2022-09-21T04:07:01.578Z,5.38
2022-09-21T04:09:29.300Z,5.27
2022-09-21T04:11:58.350Z,5.72
2022-09-21T04:14:26.294Z,6.00
2022-09-21T04:16:54.086Z,4.53
2022-09-21T04:19:22.331Z,4.47
2022-09-21T04:21:51.374Z,4.38
2022-09-21T04:24:19.653Z,3.73
2022-09-21T04:26:47.710Z,4.45
2022-09-21T04:29:17.372Z,3.42
2022-09-21T04:31:46.011Z,3.65
2022-09-21T04:34:15.052Z,4.45
2022-09-21T04:36:43.575Z,4.07
2022-09-21T04:39:11.308Z,3.53
2022-09-21T04:41:39.103Z,4.40
2022-09-21T04:44:06.848Z,4.50
2022-09-21T04:46:36.073Z,3.90
2022-09-21T04:49:03.921Z,4.28
2022-09-21T04:51:31.754Z,4.10
2022-09-21T04:54:00.093Z,4.03
2022-09-21T04:56:30.258Z,4.70
2022-09-21T04:58:58.335Z,6.03
2022-09-21T05:01:29.164Z,4.55
2022-09-21T05:04:01.708Z,5.30
2022-09-21T05:06:29.948Z,6.40
2022-09-21T05:09:15.086Z,7.03
2022-09-21T05:11:42.966Z,5.68
2022-09-21T05:14:11.438Z,4.50
2022-09-21T05:16:41.703Z,3.80
2022-09-21T05:19:11.026Z,3.80
2022-09-21T05:21:40.956Z,3.30
2022-09-21T05:24:09.143Z,4.05
2022-09-21T05:26:36.939Z,4.07
2022-09-21T05:29:05.648Z,4.13
2022-09-21T05:31:42.280Z,3.70
2022-09-21T05:34:26.625Z,3.58
2022-09-21T05:37:02.465Z,4.63
2022-09-21T05:39:30.891Z,4.40
2022-09-21T05:41:59.051Z,4.40
2022-09-21T05:44:27.364Z,4.67
2022-09-21T05:47:00.664Z,3.55
2022-09-21T05:49:46.005Z,4.47
2022-09-21T05:52:21.848Z,5.70
2022-09-21T05:55:02.967Z,3.63
2022-09-21T05:57:43.325Z,3.77
2022-09-21T06:00:18.656Z,7.60
2022-09-21T06:03:10.855Z,5.93
2022-09-21T06:05:43.720Z,5.97
2022-09-21T06:08:13.680Z,4.75
2022-09-21T06:10:42.065Z,3.60
2022-09-21T06:13:10.204Z,4.80
2022-09-21T06:15:38.492Z,7.53
2022-09-21T06:18:12.142Z,8.68
2022-09-21T06:20:43.424Z,11.80
2022-09-21T06:23:13.226Z,7.72
2022-09-21T06:25:40.999Z,5.20
2022-09-21T06:28:10.896Z,3.97
2022-09-21T06:30:39.429Z,4.30
2022-09-21T06:33:08.169Z,7.93
2022-09-21T06:35:37.684Z,8.80
2022-09-21T06:38:08.189Z,9.50
2022-09-21T06:40:37.820Z,12.18
2022-09-21T06:43:06.842Z,8.52
2022-09-21T06:45:34.720Z,5.75
2022-09-21T06:48:02.838Z,8.05
2022-09-21T06:50:30.775Z,8.55
2022-09-21T06:53:01.490Z,8.15
2022-09-21T06:55:30.677Z,9.73
2022-09-21T06:58:01.803Z,10.73
2022-09-21T07:00:30.335Z,7.50
2022-09-21T07:02:58.401Z,8.63
2022-09-21T07:05:26.592Z,8.23
2022-09-21T07:07:58.557Z,7.32
2022-09-21T07:10:30.375Z,11.73
2022-09-21T07:13:04.259Z,9.52
2022-09-21T07:15:32.101Z,6.82
2022-09-21T07:18:07.452Z,7.72
2022-09-21T07:20:35.275Z,8.20
2022-09-21T07:23:11.348Z,6.57
2022-09-21T07:25:40.573Z,6.18
2022-09-21T07:28:08.810Z,9.82
2022-09-21T07:30:37.667Z,8.38
2022-09-21T07:33:06.253Z,7.13
2022-09-21T07:35:35.247Z,7.22
2022-09-21T07:38:05.827Z,8.00
2022-09-21T07:40:33.843Z,9.82
2022-09-21T07:43:03.804Z,9.07
2022-09-21T07:45:32.168Z,10.38
2022-09-21T07:48:04.451Z,8.65
2022-09-21T07:50:33.666Z,9.20
2022-09-21T07:53:01.686Z,8.55
2022-09-21T07:55:29.880Z,8.90
2022-09-21T07:58:15.110Z,7.63
2022-09-21T08:00:44.416Z,8.50
2022-09-21T08:03:12.631Z,7.57
2022-09-21T08:05:40.483Z,7.07
2022-09-21T08:08:08.954Z,6.88
2022-09-21T08:10:37.287Z,8.88
2022-09-21T08:13:05.087Z,6.35
2022-09-21T08:15:50.164Z,6.50
2022-09-21T08:18:19.553Z,5.85
2022-09-21T08:20:55.350Z,7.30
2022-09-21T08:23:23.443Z,5.60
2022-09-21T08:25:51.296Z,9.00
2022-09-21T08:28:19.653Z,6.30
2022-09-21T08:30:47.464Z,6.05
2022-09-21T08:33:15.401Z,7.75
2022-09-21T08:35:44.506Z,6.53
2022-09-21T08:38:12.357Z,5.63
2022-09-21T08:40:42.248Z,4.57
2022-09-21T08:43:13.740Z,5.70
2022-09-21T08:45:45.321Z,6.05
2022-09-21T08:48:23.975Z,6.20
2022-09-21T08:50:58.448Z,4.85
2022-09-21T08:53:34.241Z,4.78
2022-09-21T08:56:02.931Z,6.18
2022-09-21T08:58:32.484Z,3.72
2022-09-21T09:01:15.612Z,6.10
2022-09-21T09:04:05.030Z,5.50
2022-09-21T09:06:44.698Z,7.38
2022-09-21T09:09:27.725Z,4.18
2022-09-21T09:12:16.388Z,3.53
2022-09-21T09:14:56.933Z,4.30
2022-09-21T09:17:39.142Z,4.03
2022-09-21T09:20:12.369Z,3.67
2022-09-21T09:22:46.500Z,4.10
2022-09-21T09:25:21.149Z,2.83
2022-09-21T09:27:54.345Z,5.03
2022-09-21T09:30:25.459Z,4.00
2022-09-21T09:32:59.383Z,5.20
2022-09-21T09:35:29.817Z,3.25
2022-09-21T09:38:03.800Z,2.65
2022-09-21T09:40:57.278Z,3.60
2022-09-21T09:43:39.609Z,2.65
2022-09-21T09:46:15.356Z,3.20
2022-09-21T09:49:02.212Z,2.60
2022-09-21T09:51:30.388Z,3.30
2022-09-21T09:54:01.143Z,2.70
2022-09-21T09:56:29.237Z,3.90
2022-09-21T09:59:03.445Z,3.80
2022-09-21T10:01:42.672Z,4.45
2022-09-21T10:04:12.842Z,3.63
2022-09-21T10:06:46.082Z,3.72
2022-09-21T10:09:24.722Z,4.28
2022-09-21T10:11:53.701Z,4.30
2022-09-21T10:14:24.944Z,3.97
2022-09-21T10:16:54.412Z,4.00
2022-09-21T10:19:25.321Z,3.13
2022-09-21T10:21:58.516Z,3.78
2022-09-21T10:24:30.735Z,4.50
2022-09-21T10:27:06.235Z,3.25
2022-09-21T10:29:41.671Z,3.40
2022-09-21T10:32:24.669Z,2.78
2022-09-21T10:35:16.318Z,2.78
2022-09-21T10:37:46.343Z,2.23
2022-09-21T10:40:27.282Z,3.47
2022-09-21T10:42:56.352Z,2.83
2022-09-21T10:45:26.718Z,2.58
2022-09-21T10:47:57.588Z,2.00
2022-09-21T10:50:29.045Z,2.88
2022-09-21T10:53:01.285Z,2.88
2022-09-21T10:55:32.170Z,2.28
2022-09-21T10:58:00.904Z,1.88
2022-09-21T11:00:36.389Z,2.08
2022-09-21T11:03:28.582Z,1.70
2022-09-21T11:05:59.688Z,2.53
2022-09-21T11:08:34.840Z,1.83
2022-09-21T11:11:14.819Z,1.60
2022-09-21T11:13:50.894Z,1.88
2022-09-21T11:16:25.604Z,1.73
2022-09-21T11:18:59.383Z,1.63
2022-09-21T11:21:39.014Z,1.67
2022-09-21T11:24:21.522Z,1.38
2022-09-21T11:26:57.126Z,2.38
2022-09-21T11:29:30.417Z,1.10
2022-09-21T11:32:16.247Z,2.40
2022-09-21T11:35:04.238Z,1.77
2022-09-21T11:37:46.201Z,1.50
2022-09-21T11:40:28.364Z,1.80
2022-09-21T11:43:10.002Z,1.20
2022-09-21T11:45:59.426Z,1.97
2022-09-21T11:48:43.759Z,1.10
2022-09-21T11:51:25.652Z,1.80
2022-09-21T11:54:21.928Z,0.75
2022-09-21T11:56:53.206Z,1.90
2022-09-21T11:59:50.791Z,3.03
2022-09-21T12:02:44.288Z,2.00
2022-09-21T12:05:21.184Z,2.90
2022-09-21T12:08:18.447Z,1.90
2022-09-21T12:10:56.192Z,1.20
2022-09-21T12:13:37.176Z,1.92
2022-09-21T12:16:14.303Z,1.00
2022-09-21T12:18:56.276Z,1.50
2022-09-21T12:21:28.515Z,1.47
2022-09-21T12:23:58.121Z,1.23
2022-09-21T12:26:30.696Z,0.75
2022-09-21T12:29:03.427Z,1.55
2022-09-21T12:31:39.391Z,1.10
2022-09-21T12:34:14.707Z,1.15
2022-09-21T12:36:53.598Z,2.13
2022-09-21T12:39:27.166Z,1.25
2022-09-21T12:42:02.080Z,2.03
2022-09-21T12:44:51.806Z,1.55
2022-09-21T12:47:28.279Z,2.00
2022-09-21T12:50:00.759Z,1.25
2022-09-21T12:52:29.211Z,0.70
2022-09-21T12:55:05.914Z,2.08
2022-09-21T12:58:10.770Z,1.58
2022-09-21T13:00:43.509Z,2.47
2022-09-21T13:03:19.904Z,1.45
2022-09-21T13:06:06.468Z,1.13
2022-09-21T13:08:37.590Z,1.10
2022-09-21T13:11:07.916Z,0.90
2022-09-21T13:13:39.584Z,0.90
2022-09-21T13:16:08.594Z,1.07
2022-09-21T13:18:40.393Z,1.15
2022-09-21T13:21:19.969Z,1.40
2022-09-21T13:23:55.882Z,1.58
2022-09-21T13:26:34.654Z,1.38
2022-09-21T13:29:30.251Z,2.28
2022-09-21T13:32:00.523Z,2.50
2022-09-21T13:34:36.079Z,0.70
2022-09-21T13:37:34.045Z,1.63
2022-09-21T13:40:41.879Z,1.73
2022-09-21T13:43:23.439Z,1.08
2022-09-21T13:45:55.608Z,1.80
2022-09-21T13:48:29.480Z,0.75
2022-09-21T13:51:07.357Z,1.13
2022-09-21T13:53:40.860Z,0.77
2022-09-21T13:56:17.493Z,0.85
2022-09-21T13:58:47.928Z,1.40
2022-09-21T14:01:45.688Z,1.73
2022-09-21T14:04:21.635Z,2.63
2022-09-21T14:06:53.348Z,0.70
2022-09-21T14:09:25.476Z,1.45
2022-09-21T14:12:00.173Z,2.08
2022-09-21T14:14:31.472Z,1.55
2022-09-21T14:17:00.208Z,1.85
2022-09-21T14:20:03.753Z,1.10
2022-09-21T14:22:38.888Z,1.92
2022-09-21T14:25:27.517Z,2.00
2022-09-21T14:28:00.250Z,1.70
2022-09-21T14:30:32.040Z,1.20
2022-09-21T14:33:13.238Z,1.75
2022-09-21T14:35:43.352Z,1.20
2022-09-21T14:38:20.906Z,1.30
2022-09-21T14:40:51.331Z,1.20
2022-09-21T14:43:35.135Z,0.90
2022-09-21T14:46:17.101Z,3.20
2022-09-21T14:49:00.080Z,1.25
2022-09-21T14:51:38.129Z,1.17
2022-09-21T14:54:32.750Z,1.58
2022-09-21T14:57:15.567Z,1.60
2022-09-21T14:59:58.788Z,0.70
2022-09-21T15:02:28.522Z,0.90
2022-09-21T15:05:05.153Z,1.17
2022-09-21T15:07:58.042Z,0.90
2022-09-21T15:11:02.601Z,1.10
2022-09-21T15:13:46.520Z,0.80
2022-09-21T15:16:35.246Z,1.05
2022-09-21T15:19:13.798Z,0.80
2022-09-21T15:21:44.403Z,1.23
2022-09-21T15:24:20.253Z,1.03
2022-09-21T15:26:51.499Z,0.93
2022-09-21T15:29:27.613Z,2.10
2022-09-21T15:31:56.339Z,0.93
2022-09-21T15:34:24.882Z,0.60
2022-09-21T15:36:53.310Z,0.90
2022-09-21T15:39:26.830Z,1.77
2022-09-21T15:42:19.671Z,0.82
2022-09-21T15:44:50.484Z,1.10
2022-09-21T15:47:24.085Z,0.90
2022-09-21T15:49:53.914Z,1.50
2022-09-21T15:52:28.171Z,1.30
2022-09-21T15:55:00.307Z,1.20
2022-09-21T15:57:38.863Z,1.00
2022-09-21T16:00:18.756Z,0.90
2022-09-21T16:03:04.172Z,1.15
2022-09-21T16:05:34.433Z,1.48
2022-09-21T16:08:07.603Z,1.10
2022-09-21T16:10:40.963Z,2.72
2022-09-21T16:13:36.406Z,1.52
2022-09-21T16:16:06.772Z,1.20
2022-09-21T16:18:43.148Z,1.30
2022-09-21T16:21:20.385Z,2.30
2022-09-21T16:23:49.313Z,1.70
2022-09-21T16:26:23.419Z,0.88
2022-09-21T16:28:59.411Z,1.23
2022-09-21T16:31:32.951Z,2.72
2022-09-21T16:34:05.376Z,1.15
2022-09-21T16:36:42.982Z,1.27
2022-09-21T16:39:15.514Z,1.30
2022-09-21T16:42:02.210Z,1.00
2022-09-21T16:44:40.216Z,1.40
2022-09-21T16:47:15.326Z,1.40
2022-09-21T16:49:43.847Z,2.20
2022-09-21T16:52:11.875Z,1.20
2022-09-21T16:54:39.717Z,1.92
2022-09-21T16:57:08.142Z,1.30
2022-09-21T16:59:37.459Z,2.28
2022-09-21T17:02:05.908Z,1.48
2022-09-21T17:04:36.719Z,2.30
2022-09-21T17:07:05.954Z,1.65
2022-09-21T17:09:35.844Z,1.55
2022-09-21T17:12:06.326Z,1.48
2022-09-21T17:14:35.921Z,1.10
2022-09-21T17:17:08.327Z,1.27
2022-09-21T17:19:36.805Z,3.42
2022-09-21T17:22:06.737Z,1.27
2022-09-21T17:24:49.783Z,1.30
2022-09-21T17:27:19.898Z,1.52
2022-09-21T17:29:49.200Z,3.20
2022-09-21T17:32:20.783Z,1.20
2022-09-21T17:34:58.580Z,2.08
2022-09-21T17:37:26.814Z,1.95
2022-09-21T17:39:54.773Z,1.40
2022-09-21T17:42:25.110Z,1.17
2022-09-21T17:45:12.336Z,1.37
2022-09-21T17:47:42.574Z,1.73
2022-09-21T17:50:20.096Z,3.78
2022-09-21T17:53:06.237Z,2.40
2022-09-21T17:55:34.671Z,1.00
2022-09-21T17:58:28.161Z,1.30
2022-09-21T18:01:02.851Z,1.30
2022-09-21T18:03:35.810Z,1.77
2022-09-21T18:10:25.002Z,1.17
2022-09-21T18:13:17.008Z,1.40
2022-09-21T18:15:56.637Z,1.48
2022-09-21T18:18:42.765Z,2.20
2022-09-21T18:21:17.765Z,0.95
2022-09-21T18:24:02.312Z,1.38
2022-09-21T18:26:30.851Z,1.52
2022-09-21T18:28:59.372Z,1.48
2022-09-21T18:31:42.782Z,3.80
2022-09-21T18:34:34.889Z,5.57
2022-09-21T18:37:15.072Z,3.95
2022-09-21T18:39:55.632Z,2.45
2022-09-21T18:42:32.020Z,3.08
2022-09-21T18:45:05.143Z,1.80
2022-09-21T18:47:41.124Z,2.67
2022-09-21T18:50:23.760Z,2.28
2022-09-21T18:52:58.288Z,1.98
2022-09-21T18:55:32.788Z,1.73
2022-09-21T18:58:01.513Z,2.33
2022-09-21T19:00:32.724Z,2.63
2022-09-21T19:03:18.880Z,2.65
2022-09-21T19:06:13.748Z,2.77
2022-09-21T19:08:50.335Z,2.45
2022-09-21T19:11:23.147Z,2.00
2022-09-21T19:14:01.490Z,1.13
2022-09-21T19:16:34.446Z,2.13
2022-09-21T19:19:15.314Z,1.67
2022-09-21T19:21:51.949Z,1.38
2022-09-21T19:24:27.095Z,1.40
2022-09-21T19:27:08.605Z,1.30
2022-09-21T19:29:47.456Z,1.63
2022-09-21T19:32:17.546Z,2.13
2022-09-21T19:34:45.933Z,3.37
2022-09-21T19:37:15.313Z,2.25
2022-09-21T19:39:43.415Z,4.05
2022-09-21T19:42:26.646Z,5.90
2022-09-21T19:45:10.888Z,2.17
2022-09-21T19:47:47.736Z,1.80
2022-09-21T19:50:18.899Z,3.63
2022-09-21T19:52:48.982Z,2.40
2022-09-21T19:55:36.928Z,3.65
2022-09-21T19:58:23.247Z,3.03
2022-09-21T20:00:55.614Z,3.20
2022-09-21T20:03:31.550Z,3.70
2022-09-21T20:06:05.711Z,2.83
2022-09-21T20:08:41.317Z,4.70
2022-09-21T20:11:14.646Z,3.83
2022-09-21T20:14:06.236Z,2.63
2022-09-21T20:16:50.884Z,2.72
2022-09-21T20:19:30.906Z,2.83
2022-09-21T20:22:04.862Z,3.65
2022-09-21T20:24:41.451Z,3.80
2022-09-21T20:27:21.755Z,3.30
2022-09-21T20:29:49.461Z,3.83
2022-09-21T20:32:17.341Z,3.58
2022-09-21T20:34:45.102Z,4.90
2022-09-21T20:37:13.541Z,6.63
2022-09-21T20:39:42.641Z,5.03
2022-09-21T20:42:16.119Z,3.83
2022-09-21T20:44:43.838Z,3.90
2022-09-21T20:47:11.898Z,6.03
2022-09-21T20:49:39.712Z,4.43
2022-09-21T20:52:09.198Z,5.40
2022-09-21T20:54:37.238Z,4.43
2022-09-21T20:57:06.835Z,4.20
2022-09-21T20:59:34.571Z,4.80
2022-09-21T21:02:02.380Z,5.43
2022-09-21T21:04:30.369Z,3.95
2022-09-21T21:07:00.417Z,3.40
2022-09-21T21:09:28.464Z,3.67
2022-09-21T21:11:56.485Z,4.10
2022-09-21T21:14:26.070Z,4.57
2022-09-21T21:16:54.064Z,3.70
2022-09-21T21:19:24.271Z,5.07
2022-09-21T21:21:51.975Z,4.60
2022-09-21T21:24:37.073Z,5.60
2022-09-21T21:27:05.376Z,4.83
2022-09-21T21:29:35.066Z,4.25
2022-09-21T21:32:03.975Z,4.53
2022-09-21T21:34:31.821Z,4.00
2022-09-21T21:36:59.503Z,4.47
2022-09-21T21:39:27.279Z,5.65
2022-09-21T21:41:55.012Z,4.13
2022-09-21T21:44:24.877Z,5.60
2022-09-21T21:46:54.724Z,3.63
2022-09-21T21:49:22.492Z,3.00
2022-09-21T21:51:50.511Z,3.73
2022-09-21T21:54:19.290Z,3.13
2022-09-21T21:56:49.210Z,2.60
2022-09-21T21:59:19.300Z,4.35
2022-09-21T22:01:47.800Z,4.75
2022-09-21T22:04:17.225Z,4.85
2022-09-21T22:06:44.939Z,3.15
2022-09-21T22:09:12.848Z,4.50
2022-09-21T22:11:40.580Z,2.70
2022-09-21T22:14:08.644Z,3.67
2022-09-21T22:16:37.723Z,3.27
2022-09-21T22:19:06.992Z,3.33
2022-09-21T22:21:41.137Z,3.30
2022-09-21T22:24:10.069Z,3.28
2022-09-21T22:26:40.631Z,2.30
2022-09-21T22:29:10.621Z,2.90
2022-09-21T22:31:41.226Z,4.20
2022-09-21T22:34:10.033Z,4.65
2022-09-21T22:36:39.873Z,4.40
2022-09-21T22:39:09.047Z,4.57
2022-09-21T22:41:38.617Z,3.35
2022-09-21T22:44:06.763Z,3.67
2022-09-21T22:46:37.552Z,4.75
2022-09-21T22:49:05.629Z,3.17
2022-09-21T22:51:33.849Z,2.60
2022-09-21T22:54:02.963Z,3.25
2022-09-21T22:56:32.459Z,4.00
2022-09-21T22:59:02.304Z,3.65
2022-09-21T23:01:33.501Z,3.40
2022-09-21T23:04:03.415Z,4.38
2022-09-21T23:06:34.642Z,3.23
2022-09-21T23:09:06.869Z,2.97
2022-09-21T23:11:39.350Z,3.22
2022-09-21T23:14:07.528Z,5.43
2022-09-21T23:16:35.906Z,4.70
2022-09-21T23:19:03.679Z,5.00
2022-09-21T23:21:31.565Z,3.70
2022-09-21T23:24:01.554Z,3.58
2022-09-21T23:26:33.936Z,4.47
2022-09-21T23:29:04.250Z,4.20
2022-09-21T23:31:33.606Z,3.77
2022-09-21T23:34:07.293Z,3.25
2022-09-21T23:36:36.815Z,3.40
2022-09-21T23:39:05.042Z,4.37
2022-09-21T23:41:35.640Z,3.97
2022-09-21T23:44:04.666Z,5.17
2022-09-21T23:46:37.075Z,3.60
2022-09-21T23:49:05.628Z,4.68
2022-09-21T23:51:33.392Z,4.13
2022-09-21T23:54:01.855Z,3.60
2022-09-21T23:56:30.235Z,3.83
2022-09-21T23:59:00.215Z,4.03
